Latest Weather Observations for Williamtown

IDN60801

Issued at 10:52 pm EDT Thursday 21 November 2019 (issued every 10 minutes, with the page automatically refreshed every 10 minutes)

About weather observations | Map of weather stations | Latest weather observations for NSW | Other Formats
Station Details ID: 061078 Name: WILLIAMTOWN RAAF Lat: -32.79 Lon: 151.84 Height: 7.5 m
Data from the previous 72 hours. | See also: Recent months at Williamtown
Date/Time
EDT
Temp
°C
App
Temp
°C
Dew
Point
°C
Rel
Hum
%
Delta-T
°C
Wind Press
QNH
hPa
Press
MSL
hPa
Rain since
9am
mm
Dir  Spd
km/h
Gust
km/h
Spd
kts
Gust
kts
21/10:30pm 23.9 23.2 18.3 71 3.5 NNE 19 28 10 15 1010.0 1009.9 0.0
21/10:00pm 24.2 24.0 18.6 71 3.5 NNE 17 26 9 14 1010.2 1010.1 0.0
21/09:30pm 24.4 23.9 18.6 70 3.7 NE 19 26 10 14 1010.1 1010.0 0.0
21/09:00pm 24.7 24.3 18.9 70 3.7 NNE 19 26 10 14 1009.9 1009.8 0.0
21/08:30pm 24.7 24.5 19.3 72 3.5 NE 19 26 10 14 1009.7 1009.6 0.0
21/08:00pm 25.0 25.2 19.4 71 3.6 NE 17 26 9 14 1009.6 1009.5 0.0
21/07:30pm 25.5 24.4 19.4 69 3.9 NE 24 30 13 16 1009.4 1009.3 0.0
21/07:00pm 26.3 25.3 18.9 63 4.7 ENE 22 33 12 18 1009.4 1009.3 0.0
21/06:30pm 27.2 26.2 18.8 60 5.4 ENE 22 32 12 17 1009.2 1009.1 0.0
21/06:00pm 28.0 26.2 18.7 57 6.0 ENE 26 35 14 19 1009.1 1009.0 0.0
21/05:30pm 28.6 26.9 19.0 56 6.2 ENE 26 33 14 18 1009.1 1009.0 0.0
21/05:00pm 29.2 27.8 18.9 53 6.7 ENE 24 32 13 17 1009.3 1009.2 0.0
21/04:30pm 30.2 29.9 19.6 53 6.9 ENE 20 28 11 15 1009.7 1009.6 0.0
21/04:00pm 29.5 29.0 19.2 54 6.7 E 20 28 11 15 1010.1 1010.0 0.0
21/03:30pm 29.7 28.8 19.1 53 6.9 ENE 22 33 12 18 1010.3 1010.2 0.0
21/03:00pm 29.3 27.5 18.7 52 6.8 ENE 26 33 14 18 1010.8 1010.7 0.0
21/02:30pm 30.5 30.0 19.2 51 7.4 ENE 20 30 11 16 1011.3 1011.2 0.0
21/02:00pm 30.6 30.5 18.7 49 7.7 E 17 26 9 14 1011.8 1011.7 0.0
21/01:30pm 29.5 29.0 18.6 52 7.0 E 19 28 10 15 1012.3 1012.2 0.0
21/01:00pm 29.2 28.7 18.6 52 6.8 NE 19 28 10 15 1012.9 1012.8 0.0
21/12:30pm 28.6 28.4 16.8 48 7.4 NE 13 20 7 11 1013.5 1013.4 0.0
21/12:00pm 28.8 29.0 17.7 51 7.0 NNE 13 19 7 10 1014.1 1014.0 0.0
21/11:30am 27.3 26.9 17.2 54 6.3 ENE 15 20 8 11 1014.6 1014.5 0.0
21/11:00am 26.6 26.2 17.1 56 5.9 ENE 15 22 8 12 1015.1 1015.0 0.0
21/10:30am 25.7 24.6 16.3 56 5.8 E 17 24 9 13 1015.4 1015.3 0.0
21/10:00am 24.9 24.9 17.1 62 4.8 NNE 13 22 7 12 1015.8 1015.7 0.0
21/09:30am 24.4 25.0 17.6 66 4.2 ENE 11 17 6 9 1016.2 1016.1 0.0
21/09:00am 22.9 24.1 18.2 75 2.9 ENE 9 13 5 7 1016.5 1016.4 0.0
21/08:52am 22.4 23.9 18.0 76 2.7 NNE 7 11 4 6 1016.6 1016.5 0.0
21/08:30am 21.5 23.1 18.3 82 2.0 NNE 7 13 4 7 1016.8 1016.7 0.0
21/08:00am 20.3 21.8 18.1 87 1.4 N 7 13 4 7 1016.9 1016.8 0.0
21/07:30am 19.8 21.3 18.1 90 1.1 WNW 7 9 4 5 1016.6 1016.5 0.0
21/07:29am 19.8 21.3 18.1 90 1.1 NW 7 9 4 5 1016.6 1016.5 0.0
21/07:00am 19.1 21.7 17.6 91 0.9 CALM 0 0 0 0 1016.4 1016.3 0.0
21/06:30am 18.9 20.0 17.9 94 0.6 SE 9 11 5 6 1016.3 1016.2 0.0
21/06:09am 18.4 18.9 17.4 94 0.6 SE 11 13 6 7 1016.3 1016.2 0.0
21/06:00am 18.3 18.7 17.3 94 0.6 SE 11 11 6 6 1016.2 1016.1 0.0
21/05:30am 18.3 20.5 16.6 90 1.0 CALM 0 6 0 3 1016.0 1015.9 0.0
21/05:00am 19.0 21.7 17.7 92 0.8 CALM 0 6 0 3 1015.9 1015.8 0.0
21/04:30am 19.0 21.8 18.0 94 0.6 CALM 0 0 0 0 1015.8 1015.7 0.0
21/04:00am 17.9 19.1 16.8 93 0.7 SE 6 7 3 4 1015.9 1015.8 0.0
21/03:30am 18.0 19.0 16.9 93 0.7 SSE 7 9 4 5 1015.9 1015.8 0.0
21/03:00am 17.9 19.1 16.8 93 0.7 SW 6 9 3 5 1015.9 1015.8 0.0
21/02:30am 18.0 19.1 17.2 95 0.5 NW 7 9 4 5 1016.2 1016.1 0.0
21/02:03am 17.4 18.3 16.1 92 0.8 WSW 6 9 3 5 1016.5 1016.4 0.0
21/02:00am 17.4 19.0 15.9 91 0.9 SW 2 9 1 5 1016.5 1016.4 0.0
21/01:30am 17.9 20.1 16.4 91 0.9 CALM 0 0 0 0 1017.0 1016.9 0.0
21/01:00am 18.6 21.0 16.9 90 1.0 CALM 0 0 0 0 1017.2 1017.1 0.0
21/12:30am 19.1 20.9 17.4 90 1.0 SSW 4 7 2 4 1017.5 1017.4 0.0
21/12:00am 19.6 20.9 17.6 88 1.2 SSE 7 9 4 5 1017.8 1017.7 0.0
 
Date/Time
EDT
Temp
°C
App
Temp
°C
Dew
Point
°C
Rel
Hum
%
Delta-T
°C
Wind Press
QNH
hPa
Press
MSL
hPa
Rain since
9am
mm
Dir  Spd
km/h
Gust
km/h
Spd
kts
Gust
kts
20/11:30pm 20.2 21.7 17.6 85 1.6 S 6 9 3 5 1018.0 1017.9 0.0
20/11:00pm 20.3 23.0 17.7 85 1.6 CALM 0 0 0 0 1018.1 1018.0 0.0
20/10:30pm 20.2 21.5 17.6 85 1.6 SSW 7 9 4 5 1018.2 1018.1 0.0
20/10:00pm 20.3 21.7 17.7 85 1.6 SSE 7 11 4 6 1018.1 1018.0 0.0
20/09:30pm 20.3 21.7 17.7 85 1.6 SSW 7 9 4 5 1017.9 1017.8 0.0
20/09:00pm 20.4 21.7 17.6 84 1.7 SSW 7 9 4 5 1017.5 1017.4 0.0
20/08:30pm 20.5 21.3 17.3 82 2.0 SSE 9 13 5 7 1017.4 1017.3 0.0
20/08:00pm 20.4 20.8 17.2 82 2.0 SSE 11 15 6 8 1017.3 1017.2 0.0
20/07:30pm 20.4 19.9 17.0 81 2.1 SSE 15 17 8 9 1017.0 1016.9 0.0
20/07:00pm 20.8 19.9 16.8 78 2.4 SE 17 24 9 13 1016.6 1016.5 0.0
20/06:30pm 21.1 19.7 16.5 75 2.8 SE 19 24 10 13 1016.0 1015.9 0.0
20/06:00pm 21.2 19.6 16.4 74 2.9 ESE 20 26 11 14 1015.7 1015.6 0.0
20/05:30pm 21.9 19.8 16.2 70 3.4 SE 22 28 12 15 1015.6 1015.5 0.0
20/05:00pm 22.4 20.1 15.7 66 4.0 SSE 22 28 12 15 1015.6 1015.5 0.0
20/04:30pm 22.5 19.7 15.4 64 4.2 SE 24 32 13 17 1015.6 1015.5 0.0
20/04:00pm 23.1 19.6 15.4 62 4.6 SSE 28 33 15 18 1015.8 1015.7 0.0
20/03:30pm 23.1 19.1 14.1 57 5.3 SE 28 33 15 18 1015.9 1015.8 0.0
20/03:00pm 22.4 18.0 12.9 55 5.4 SE 28 35 15 19 1016.0 1015.9 0.0
20/02:30pm 22.9 18.2 14.2 58 5.1 SE 32 35 17 19 1016.2 1016.1 0.0
20/02:00pm 23.6 19.7 14.3 56 5.5 SSE 28 37 15 20 1016.1 1016.0 0.0
20/01:30pm 22.5 17.9 13.6 57 5.2 SE 30 37 16 20 1016.1 1016.0 0.0
20/01:00pm 22.8 18.4 14.1 58 5.1 SSE 30 39 16 21 1016.4 1016.3 0.0
20/12:30pm 22.5 18.5 14.1 59 4.9 S 28 37 15 20 1016.7 1016.6 0.0
20/12:00pm 22.6 18.2 14.2 59 4.9 SSE 30 39 16 21 1016.9 1016.8 0.0
20/11:30am 22.9 19.2 15.0 61 4.7 SSE 28 35 15 19 1017.1 1017.0 0.0
20/11:00am 22.2 18.0 14.6 62 4.5 S 30 39 16 21 1017.3 1017.2 0.0
20/10:30am 21.7 17.7 15.1 66 3.9 S 30 37 16 20 1017.2 1017.1 0.0
20/10:00am 21.6 17.3 14.5 64 4.2 S 30 37 16 20 1017.1 1017.0 0.0
20/09:30am 21.1 16.8 14.5 66 3.9 S 30 39 16 21 1017.1 1017.0 0.0
20/09:00am 20.8 16.9 14.5 67 3.7 SSW 28 37 15 20 1017.0 1016.9 0.0
20/08:30am 20.4 16.6 14.7 70 3.3 S 28 37 15 20 1016.8 1016.7 0.0
20/08:00am 20.1 16.4 14.9 72 3.0 SSW 28 37 15 20 1016.4 1016.3 0.0
20/07:30am 20.0 16.5 15.4 75 2.7 S 28 35 15 19 1015.9 1015.8 0.0
20/07:00am 19.8 16.4 14.8 73 2.9 SSW 26 37 14 20 1015.7 1015.6 0.0
20/06:30am 19.5 16.6 15.2 76 2.5 SSW 24 33 13 18 1015.5 1015.4 0.0
20/06:00am 19.4 17.5 15.3 77 2.4 SSW 19 32 10 17 1015.3 1015.2 0.0
20/05:30am 19.3 16.5 15.4 78 2.3 SSW 24 35 13 19 1014.7 1014.6 0.0
20/05:00am 19.3 16.1 15.4 78 2.3 SSW 26 39 14 21 1014.3 1014.2 0.0
20/04:30am 19.4 16.3 15.5 78 2.3 SSW 26 39 14 21 1014.1 1014.0 0.0
20/04:00am 19.5 16.3 16.2 81 2.0 SSW 28 37 15 20 1013.7 1013.6 0.0
20/03:30am 19.6 15.6 16.6 83 1.8 SSW 33 46 18 25 1013.5 1013.4 0.0
20/03:00am 20.1 17.0 16.5 80 2.2 SSW 28 37 15 20 1013.4 1013.3 0.0
20/02:41am 20.1 16.6 16.5 80 2.2 SSW 30 39 16 21 1013.4 1013.3 0.0
20/02:30am 20.2 16.5 17.0 82 1.9 SSW 32 46 17 25 1013.3 1013.2 0.0
20/02:03am 20.4 16.9 17.4 83 1.8 SSW 32 41 17 22 1013.0 1012.9 0.0
20/02:01am 20.3 16.7 17.3 83 1.8 SSW 32 41 17 22 1013.0 1012.9 0.0
20/02:00am 20.3 16.7 17.3 83 1.8 SSW 32 41 17 22 1013.0 1012.9 0.0
20/01:30am 20.5 16.2 17.7 84 1.7 SSW 37 50 20 27 1012.6 1012.5 0.0
20/01:00am 20.8 17.6 18.6 87 1.4 SSW 33 48 18 26 1012.3 1012.2 0.0
20/12:43am 20.7 17.9 19.0 90 1.1 SSW 32 50 17 27 1012.1 1012.0 0.0
20/12:37am 20.7 17.8 18.8 89 1.2 SSW 32 44 17 24 1012.1 1012.0 0.0
20/12:30am 20.6 17.4 18.7 89 1.2 SSW 33 48 18 26 1012.1 1012.0 0.0
20/12:13am 20.8 17.7 18.4 86 1.5 SSW 32 50 17 27 1012.0 1011.9 0.0
20/12:00am 21.0 17.6 17.8 82 2.0 SSW 32 41 17 22 1012.0 1011.9 0.0
 
Date/Time
EDT
Temp
°C
App
Temp
°C
Dew
Point
°C
Rel
Hum
%
Delta-T
°C
Wind Press
QNH
hPa
Press
MSL
hPa
Rain since
9am
mm
Dir  Spd
km/h
Gust
km/h
Spd
kts
Gust
kts
19/11:47pm 21.2 17.5 17.4 79 2.3 SSW 33 52 18 28 1011.8 1011.7 0.0
19/11:30pm 21.7 17.6 16.0 70 3.4 SSW 32 43 17 23 1011.6 1011.5 0.0
19/11:00pm 20.2 14.5 5.1 37 7.4 SSW 24 30 13 16 1010.5 1010.4 0.0
19/10:30pm 23.8 19.8 2.6 25 10.1 NNE 13 19 7 10 1009.1 1009.0 0.0
19/10:00pm 24.4 20.3 2.5 24 10.5 NNE 13 17 7 9 1009.3 1009.2 0.0
19/09:30pm 24.6 20.2 2.7 24 10.6 NE 15 20 8 11 1009.4 1009.3 0.0
19/09:00pm 24.5 20.8 4.3 27 10.0 NNE 13 19 7 10 1009.3 1009.2 0.0
19/08:30pm 25.0 22.3 5.7 29 9.9 ENE 9 13 5 7 1009.4 1009.3 0.0
19/08:00pm 25.4 21.9 5.6 28 10.1 NE 13 19 7 10 1009.3 1009.2 0.0
19/07:30pm 25.8 21.8 4.9 26 10.6 ENE 15 22 8 12 1009.0 1008.9 0.0
19/07:00pm 26.7 22.7 5.1 25 11.1 ENE 15 22 8 12 1008.6 1008.5 0.0
19/06:30pm 27.5 22.7 4.5 23 11.7 ENE 19 26 10 14 1008.0 1008.0 0.0
19/06:00pm 27.7 22.5 5.3 24 11.6 ENE 22 33 12 18 1007.6 1007.6 0.0
19/05:30pm 28.4 21.9 2.6 19 12.7 NE 26 35 14 19 1007.6 1007.6 0.0
19/05:00pm 29.6 23.7 2.0 17 13.6 ENE 22 33 12 18 1007.6 1007.6 0.0
19/04:30pm 29.4 23.3 0.1 15 14.0 ENE 22 33 12 18 1007.8 1007.8 0.0
19/04:00pm 29.3 23.5 0.0 15 13.9 E 20 30 11 16 1008.1 1008.1 0.0
19/03:30pm 30.4 24.8 0.9 15 14.3 E 20 30 11 16 1008.6 1008.5 0.0
19/03:00pm 30.5 23.4 -1.0 13 14.9 ESE 26 33 14 18 1008.7 1008.6 0.0
19/02:30pm 31.1 24.5 -0.5 13 15.1 ESE 24 33 13 18 1009.1 1009.0 0.0
19/02:00pm 32.4 25.4 -0.6 12 15.9 SE 26 33 14 18 1009.5 1009.4 0.0
19/01:30pm 32.1 24.7 -0.9 12 15.7 SE 28 33 15 18 1010.0 1009.9 0.0
19/01:00pm 32.8 28.1 0.8 13 15.8 S 15 24 8 13 1010.2 1010.1 0.0
19/12:30pm 32.7 27.6 -1.6 11 16.2 SSW 15 20 8 11 1010.8 1010.7 0.0
19/12:00pm 32.2 26.7 -2.0 11 16.0 WSW 17 22 9 12 1011.3 1011.2 0.0
19/11:30am 31.3 27.2 -0.4 13 15.2 SSW 11 20 6 11 1011.6 1011.5 0.0
19/11:00am 30.5 26.0 0.0 14 14.6 WSW 13 20 7 11 1012.1 1012.0 0.0
19/10:30am 30.0 25.3 3.1 18 13.5 NW 17 26 9 14 1012.4 1012.3 0.0
19/10:00am 28.6 23.8 4.8 22 12.2 NW 19 28 10 15 1012.6 1012.5 0.0
19/09:30am 26.9 21.9 4.6 24 11.3 WNW 20 28 11 15 1012.8 1012.7 0.0
19/09:00am 25.4 20.6 5.6 28 10.1 WNW 20 28 11 15 1012.9 1012.8 0.0
19/08:30am 23.6 19.1 6.8 34 8.7 NW 20 26 11 14 1013.1 1013.0 0.0
19/08:00am 21.8 18.3 8.7 43 6.9 NW 17 19 9 10 1013.1 1013.0 0.0
19/07:30am 19.6 17.3 10.6 56 4.9 NW 13 19 7 10 1012.9 1012.8 0.0
19/07:00am 16.9 15.0 11.8 72 2.8 NW 13 15 7 8 1012.7 1012.6 0.0
19/06:30am 14.5 13.0 11.8 84 1.5 WNW 11 13 6 7 1012.5 1012.4 0.0
19/06:00am 13.6 12.9 11.3 86 1.2 W 6 11 3 6 1012.3 1012.2 0.0
19/05:30am 13.8 12.6 11.5 86 1.2 NW 9 11 5 6 1012.0 1011.9 0.0
19/05:00am 14.2 13.1 11.9 86 1.2 NW 9 11 5 6 1011.7 1011.6 0.0
19/04:30am 14.8 13.9 12.5 86 1.3 NW 9 11 5 6 1011.5 1011.4 0.0
19/04:00am 15.4 15.1 12.7 84 1.5 NW 6 7 3 4 1011.5 1011.4 0.0
19/03:30am 15.0 14.4 12.3 84 1.5 NW 7 11 4 6 1011.5 1011.4 0.0
19/03:00am 15.3 14.1 12.8 85 1.4 NW 11 11 6 6 1011.5 1011.4 0.0
19/02:30am 14.4 13.4 12.3 87 1.1 NW 9 11 5 6 1011.5 1011.4 0.0
19/02:00am 15.2 16.1 12.9 86 1.3 CALM 0 0 0 0 1011.7 1011.6 0.0
19/01:30am 15.0 15.2 11.8 81 1.7 N 2 6 1 3 1011.9 1011.8 0.0
19/01:00am 16.2 16.7 12.7 80 1.9 N 2 7 1 4 1012.1 1012.0 0.0
19/12:30am 16.8 17.1 12.1 74 2.6 WNW 2 6 1 3 1012.4 1012.3 0.0
19/12:00am 17.9 17.6 12.6 71 3.0 WNW 6 7 3 4 1012.6 1012.5 0.0
 
Date/Time
EDT
Temp
°C
App
Temp
°C
Dew
Point
°C
Rel
Hum
%
Delta-T
°C
Wind Press
QNH
hPa
Press
MSL
hPa
Rain since
9am
mm
Dir  Spd
km/h
Gust
km/h
Spd
kts
Gust
kts
18/11:30pm 19.7 18.1 12.9 65 3.8 N 13 15 7 8 1012.5 1012.4 0.0
18/11:00pm 20.2 18.6 12.9 63 4.1 NNE 13 19 7 10 1012.4 1012.3 0.0

Other formats

Comma delimited format used in spreadsheet applications
http://www.bom.gov.au/fwo/IDN60801/IDN60801.94776.axf

JavaScript Object Notation format (JSON) in row-major order
http://www.bom.gov.au/fwo/IDN60801/IDN60801.94776.json

Data quality

Most of these data are generated automatically and are frequently updated. Quality checks on data are not normally performed. It is possible for incorrect values to appear. Refer to information at About Latest Weather Observations and please check the disclaimer before using these data.